Honea Path, South Carolina
Current Conditions -  °F | °C
As of 12:56 PM on Friday 19 Dec 2014 (Local Time) from KAND Reporting Station
Clear Clear  
Wind Chill: 13°   Ceiling: Unl
Heat Index: 13°   Visibility: 10mi
Dew Point:   Wind: 6mph
Humidity: 42%   Direction: NA
Pressure: 30.13"   Gusts: NA
Location:  34.45°N, 82.39°W
Report Text: KAND 191756Z AUTO VRB05KT 10SM CLR 13/00 A3013 RMK AO2 SLP200 T01280000 10133 20006 58014
Loading
Personal Weather Stations






























Interactive Weather Map New forecast layout! Learn more

10-Day Weather Forecast

Advertisements
Track Severe Weather on mobile